createdAt,value
2023-03-20T00:01:21.537Z,5.53
2023-03-20T00:03:50.464Z,7.95
2023-03-20T00:06:19.395Z,5.63
2023-03-20T00:08:48.485Z,9.07
2023-03-20T00:11:30.418Z,11.05
2023-03-20T00:14:01.031Z,7.28
2023-03-20T00:16:31.779Z,8.60
2023-03-20T00:19:00.237Z,7.15
2023-03-20T00:21:30.738Z,6.85
2023-03-20T00:23:59.359Z,5.18
2023-03-20T00:26:33.630Z,5.43
2023-03-20T00:29:06.597Z,8.32
2023-03-20T00:31:36.287Z,9.77
2023-03-20T00:34:05.618Z,7.30
2023-03-20T00:36:33.919Z,10.80
2023-03-20T00:39:06.845Z,11.63
2023-03-20T00:41:42.590Z,8.20
2023-03-20T00:44:18.480Z,10.88
2023-03-20T00:46:49.113Z,8.75
2023-03-20T00:49:17.437Z,8.13
2023-03-20T00:51:46.954Z,8.18
2023-03-20T00:54:15.857Z,11.48
2023-03-20T00:56:44.941Z,11.20
2023-03-20T00:59:20.486Z,12.05
2023-03-20T01:01:49.036Z,11.05
2023-03-20T01:04:18.996Z,11.32
2023-03-20T01:06:47.580Z,12.68
2023-03-20T01:09:17.016Z,11.70
2023-03-20T01:11:45.847Z,14.18
2023-03-20T01:14:16.772Z,9.60
2023-03-20T01:16:48.107Z,11.05
2023-03-20T01:19:17.047Z,11.13
2023-03-20T01:21:45.549Z,9.13
2023-03-20T01:24:16.485Z,13.27
2023-03-20T01:26:51.810Z,14.70
2023-03-20T01:29:22.476Z,12.60
2023-03-20T01:31:53.538Z,10.93
2023-03-20T01:34:23.947Z,14.77
2023-03-20T01:36:53.476Z,12.77
2023-03-20T01:39:24.438Z,15.43
2023-03-20T01:41:54.192Z,15.85
2023-03-20T01:44:25.541Z,15.15
2023-03-20T01:47:00.645Z,16.02
2023-03-20T01:49:54.113Z,14.10
2023-03-20T01:52:26.994Z,18.88
2023-03-20T01:55:06.239Z,14.05
2023-03-20T01:57:34.996Z,15.82
2023-03-20T02:00:06.786Z,15.63
2023-03-20T02:02:48.676Z,14.70
2023-03-20T02:05:38.268Z,14.25
2023-03-20T02:08:19.730Z,18.45
2023-03-20T02:10:52.975Z,15.38
2023-03-20T02:13:29.216Z,17.20
2023-03-20T02:16:00.586Z,15.05
2023-03-20T02:18:51.609Z,15.98
2023-03-20T02:21:41.021Z,15.02
2023-03-20T02:24:26.190Z,18.58
2023-03-20T02:27:02.430Z,15.18
2023-03-20T02:29:48.476Z,17.10
2023-03-20T02:32:41.180Z,17.17
2023-03-20T02:35:35.494Z,13.95
2023-03-20T02:38:18.821Z,19.17
2023-03-20T02:40:50.882Z,15.00
2023-03-20T02:43:21.973Z,18.45
2023-03-20T02:45:57.770Z,16.08
2023-03-20T02:48:32.329Z,15.57
2023-03-20T02:51:05.310Z,17.65
2023-03-20T02:53:43.850Z,16.92
2023-03-20T02:56:17.686Z,16.88
2023-03-20T02:58:54.338Z,17.25
2023-03-20T03:01:28.088Z,15.82
2023-03-20T03:04:00.540Z,13.82
2023-03-20T03:06:31.559Z,14.07
2023-03-20T03:09:03.853Z,15.32
2023-03-20T03:11:32.774Z,12.35
2023-03-20T03:14:01.715Z,17.92
2023-03-20T03:16:32.032Z,18.67
2023-03-20T03:19:07.757Z,13.65
2023-03-20T03:21:37.736Z,11.70
2023-03-20T03:24:08.897Z,12.63
2023-03-20T03:26:39.227Z,13.90
2023-03-20T03:29:11.770Z,12.13
2023-03-20T03:31:40.867Z,13.23
2023-03-20T03:34:13.607Z,11.70
2023-03-20T03:36:48.374Z,14.93
2023-03-20T03:39:22.811Z,12.60
2023-03-20T03:41:52.498Z,14.90
2023-03-20T03:44:23.485Z,11.13
2023-03-20T03:46:55.252Z,14.77
2023-03-20T03:49:28.039Z,13.35
2023-03-20T03:52:02.125Z,13.38
2023-03-20T03:54:33.921Z,12.10
2023-03-20T03:57:47.598Z,15.45
2023-03-20T04:00:20.792Z,14.18
2023-03-20T04:02:51.331Z,13.85
2023-03-20T04:05:23.258Z,11.57
2023-03-20T04:07:59.489Z,17.38
2023-03-20T04:10:33.632Z,12.07
2023-03-20T04:13:02.273Z,12.32
2023-03-20T04:15:30.544Z,16.10
2023-03-20T04:17:59.087Z,13.65
2023-03-20T04:20:27.563Z,13.18
2023-03-20T04:22:55.818Z,12.70
2023-03-20T04:25:27.691Z,13.82
2023-03-20T04:28:01.179Z,13.27
2023-03-20T04:30:40.129Z,12.25
2023-03-20T04:33:14.600Z,14.50
2023-03-20T04:36:10.310Z,14.23
2023-03-20T04:38:39.024Z,10.60
2023-03-20T04:41:10.054Z,16.20
2023-03-20T04:43:40.459Z,12.52
2023-03-20T04:46:11.714Z,13.80
2023-03-20T04:48:42.323Z,14.30
2023-03-20T04:51:12.301Z,13.70
2023-03-20T04:53:48.691Z,16.67
2023-03-20T04:56:17.023Z,15.73
2023-03-20T04:58:48.955Z,12.98
2023-03-20T05:01:19.036Z,12.63
2023-03-20T05:03:49.993Z,12.35
2023-03-20T05:06:20.638Z,13.55
2023-03-20T05:08:51.750Z,14.43
2023-03-20T05:11:20.770Z,13.57
2023-03-20T05:14:04.653Z,11.63
2023-03-20T05:16:51.866Z,15.25
2023-03-20T05:19:36.834Z,14.10
2023-03-20T05:22:22.905Z,10.80
2023-03-20T05:24:56.124Z,16.33
2023-03-20T05:27:49.003Z,11.85
2023-03-20T05:30:40.044Z,13.65
2023-03-20T05:33:38.946Z,16.33
2023-03-20T05:36:13.911Z,15.15
2023-03-20T05:38:58.159Z,14.48
2023-03-20T05:41:40.397Z,13.55
2023-03-20T05:44:29.503Z,14.55
2023-03-20T05:47:18.773Z,15.80
2023-03-20T05:50:14.463Z,12.80
2023-03-20T05:53:06.372Z,15.52
2023-03-20T05:55:48.561Z,13.57
2023-03-20T05:58:28.500Z,14.82
2023-03-20T06:01:23.965Z,13.07
2023-03-20T06:03:56.597Z,15.52
2023-03-20T06:06:44.845Z,15.32
2023-03-20T06:09:13.375Z,11.77
2023-03-20T06:11:46.560Z,16.33
2023-03-20T06:14:20.408Z,14.27
2023-03-20T06:16:57.167Z,15.77
2023-03-20T06:19:40.451Z,15.68
2023-03-20T06:22:11.517Z,11.90
2023-03-20T06:24:39.933Z,14.75
2023-03-20T06:27:08.867Z,15.15
2023-03-20T06:29:39.762Z,12.20
2023-03-20T06:32:18.033Z,10.35
2023-03-20T06:34:50.577Z,11.75
2023-03-20T06:37:21.950Z,13.05
2023-03-20T06:39:50.847Z,11.63
2023-03-20T06:42:20.532Z,14.32
2023-03-20T06:44:50.310Z,11.90
2023-03-20T06:47:39.818Z,13.50
2023-03-20T06:50:10.904Z,9.70
2023-03-20T06:52:39.789Z,10.80
2023-03-20T06:55:22.771Z,13.15
2023-03-20T06:57:51.145Z,15.38
2023-03-20T07:00:21.739Z,10.10
2023-03-20T07:02:53.390Z,9.23
2023-03-20T07:05:23.755Z,10.60
2023-03-20T07:07:52.897Z,10.13
2023-03-20T07:10:21.311Z,13.18
2023-03-20T07:13:00.266Z,14.57
2023-03-20T07:15:31.266Z,13.07
2023-03-20T07:18:00.038Z,11.15
2023-03-20T07:20:30.797Z,10.35
2023-03-20T07:22:59.873Z,14.38
2023-03-20T07:25:41.768Z,8.30
2023-03-20T07:28:11.407Z,10.00
2023-03-20T07:30:43.563Z,13.13
2023-03-20T07:33:12.684Z,11.88
2023-03-20T07:35:42.670Z,11.45
2023-03-20T07:38:11.197Z,9.45
2023-03-20T07:40:51.746Z,10.45
2023-03-20T07:43:20.600Z,8.07
2023-03-20T07:46:03.504Z,8.02
2023-03-20T07:48:31.869Z,11.65
2023-03-20T07:51:01.550Z,9.05
2023-03-20T07:53:30.192Z,10.30
2023-03-20T07:55:58.540Z,8.70
2023-03-20T07:58:26.832Z,8.35
2023-03-20T08:00:55.549Z,10.27
2023-03-20T08:03:26.394Z,9.95
2023-03-20T08:05:55.642Z,11.18
2023-03-20T08:08:25.626Z,9.60
2023-03-20T08:10:56.443Z,9.50
2023-03-20T08:13:24.794Z,11.30
2023-03-20T08:15:53.274Z,12.13
2023-03-20T08:18:22.470Z,11.45
2023-03-20T08:20:51.338Z,6.32
2023-03-20T08:23:22.359Z,11.55
2023-03-20T08:25:55.180Z,9.48
2023-03-20T08:28:36.354Z,9.70
2023-03-20T08:31:11.959Z,13.50
2023-03-20T08:33:45.118Z,9.02
2023-03-20T08:36:15.149Z,9.90
2023-03-20T08:38:43.604Z,5.90
2023-03-20T08:41:13.241Z,6.85
2023-03-20T08:43:44.037Z,9.75
2023-03-20T08:46:12.677Z,8.35
2023-03-20T08:48:45.821Z,10.80
2023-03-20T08:51:14.154Z,7.03
2023-03-20T08:53:42.422Z,15.30
2023-03-20T08:56:12.074Z,8.32
2023-03-20T08:58:44.425Z,10.50
2023-03-20T09:01:15.444Z,9.00
2023-03-20T09:03:43.779Z,11.63
2023-03-20T09:06:16.618Z,9.55
2023-03-20T09:08:47.561Z,8.73
2023-03-20T09:11:17.863Z,6.60
2023-03-20T09:13:49.701Z,8.95
2023-03-20T09:16:17.981Z,8.70
2023-03-20T09:18:46.228Z,10.48
2023-03-20T09:21:14.493Z,8.05
2023-03-20T09:23:44.946Z,8.23
2023-03-20T09:26:13.213Z,7.82
2023-03-20T09:28:41.779Z,7.25
2023-03-20T09:31:18.084Z,10.77
2023-03-20T09:33:46.673Z,11.45
2023-03-20T09:36:15.970Z,11.55
2023-03-20T09:38:44.276Z,7.55
2023-03-20T09:41:17.786Z,10.63
2023-03-20T09:43:48.835Z,13.52
2023-03-20T09:46:28.431Z,8.23
2023-03-20T09:49:01.122Z,9.48
2023-03-20T09:51:33.546Z,8.45
2023-03-20T09:54:05.135Z,9.93
2023-03-20T09:56:33.514Z,10.32
2023-03-20T09:59:08.023Z,13.38
2023-03-20T10:01:41.820Z,11.10
2023-03-20T10:04:11.629Z,7.93
2023-03-20T10:06:40.494Z,11.15
2023-03-20T10:09:13.973Z,11.38
2023-03-20T10:11:55.981Z,9.60
2023-03-20T10:14:26.846Z,11.25
2023-03-20T10:17:03.872Z,15.57
2023-03-20T10:19:33.194Z,9.85
2023-03-20T10:22:05.831Z,10.43
2023-03-20T10:24:37.192Z,12.23
2023-03-20T10:27:07.863Z,9.25
2023-03-20T10:29:44.808Z,13.00
2023-03-20T10:32:18.514Z,10.85
2023-03-20T10:34:53.348Z,8.25
2023-03-20T10:37:39.823Z,12.95
2023-03-20T10:40:23.421Z,10.43
2023-03-20T10:42:53.272Z,8.90
2023-03-20T10:45:28.784Z,11.63
2023-03-20T10:47:59.290Z,12.82
2023-03-20T10:50:30.810Z,12.60
2023-03-20T10:52:59.323Z,11.65
2023-03-20T10:55:29.291Z,15.05
2023-03-20T10:57:59.443Z,13.13
2023-03-20T11:00:28.588Z,11.77
2023-03-20T11:02:58.163Z,11.95
2023-03-20T11:05:29.461Z,16.73
2023-03-20T11:08:05.290Z,11.73
2023-03-20T11:10:34.767Z,12.95
2023-03-20T11:13:19.470Z,11.82
2023-03-20T11:15:49.920Z,13.77
2023-03-20T11:18:19.892Z,14.85
2023-03-20T11:20:49.560Z,10.65
2023-03-20T11:23:18.691Z,15.25
2023-03-20T11:25:49.418Z,12.75
2023-03-20T11:28:23.466Z,14.30
2023-03-20T11:31:04.510Z,11.88
2023-03-20T11:33:44.406Z,11.10
2023-03-20T11:36:13.772Z,11.10
2023-03-20T11:38:45.954Z,13.77
2023-03-20T11:41:21.356Z,13.85
2023-03-20T11:43:49.719Z,11.98
2023-03-20T11:46:17.990Z,9.18
2023-03-20T11:48:50.252Z,12.68
2023-03-20T11:51:20.746Z,16.05
2023-03-20T11:53:59.848Z,11.35
2023-03-20T11:56:31.806Z,15.98
2023-03-20T11:59:01.632Z,9.35
2023-03-20T12:01:30.820Z,12.23
2023-03-20T12:04:06.745Z,9.70
2023-03-20T12:06:44.241Z,11.98
2023-03-20T12:09:18.888Z,13.30
2023-03-20T12:11:49.230Z,13.55
2023-03-20T12:14:32.200Z,15.30
2023-03-20T12:17:09.831Z,15.73
2023-03-20T12:19:40.675Z,12.07
2023-03-20T12:22:16.058Z,12.07
2023-03-20T12:24:47.618Z,15.02
2023-03-20T12:27:22.862Z,11.85
2023-03-20T12:29:54.324Z,8.43
2023-03-20T12:32:26.332Z,15.60
2023-03-20T12:34:57.643Z,10.48
2023-03-20T12:37:26.068Z,12.13
2023-03-20T12:39:55.879Z,15.50
2023-03-20T12:42:33.691Z,13.18
2023-03-20T12:45:09.352Z,10.60
2023-03-20T12:47:47.421Z,10.25
2023-03-20T12:50:20.038Z,12.43
2023-03-20T12:52:55.588Z,16.55
2023-03-20T12:55:26.985Z,9.02
2023-03-20T12:58:03.394Z,11.25
2023-03-20T13:00:34.626Z,12.32
2023-03-20T13:03:09.513Z,10.77
2023-03-20T13:05:44.494Z,9.63
2023-03-20T13:08:32.601Z,9.52
2023-03-20T13:11:09.835Z,10.13
2023-03-20T13:13:46.910Z,10.77
2023-03-20T13:16:22.010Z,7.88
2023-03-20T13:18:54.996Z,10.80
2023-03-20T13:21:29.185Z,14.35
2023-03-20T13:24:08.069Z,10.60
2023-03-20T13:26:40.545Z,11.63
2023-03-20T13:29:11.548Z,12.18
2023-03-20T13:31:51.586Z,10.25
2023-03-20T13:34:25.982Z,9.75
2023-03-20T13:37:19.915Z,15.63
2023-03-20T13:40:03.673Z,9.07
2023-03-20T13:42:35.658Z,10.40
2023-03-20T13:45:07.501Z,9.02
2023-03-20T13:47:40.272Z,10.95
2023-03-20T13:50:14.837Z,9.13
2023-03-20T13:52:47.232Z,9.15
2023-03-20T13:55:20.231Z,7.65
2023-03-20T13:58:00.158Z,9.73
2023-03-20T14:00:30.040Z,13.20
2023-03-20T14:03:08.794Z,12.32
2023-03-20T14:05:38.823Z,12.25
2023-03-20T14:11:10.267Z,8.55
2023-03-20T14:13:39.218Z,8.95
2023-03-20T14:16:12.966Z,10.80
2023-03-20T14:18:45.066Z,7.80
2023-03-20T14:21:14.851Z,9.10
2023-03-20T14:23:47.031Z,7.60
2023-03-20T14:26:23.012Z,8.25
2023-03-20T14:28:58.728Z,18.70
2023-03-20T14:31:30.604Z,8.52
2023-03-20T14:34:09.072Z,8.60
2023-03-20T14:36:48.270Z,10.52
2023-03-20T14:39:21.946Z,9.07
2023-03-20T14:42:01.296Z,10.80
2023-03-20T14:44:37.910Z,10.88
2023-03-20T14:47:11.316Z,9.25
2023-03-20T14:49:51.506Z,9.60
2023-03-20T14:52:29.380Z,8.55
2023-03-20T14:54:57.864Z,11.35
2023-03-20T14:57:37.626Z,12.45
2023-03-20T15:00:23.864Z,10.73
2023-03-20T15:02:53.942Z,13.18
2023-03-20T15:05:29.177Z,17.17
2023-03-20T15:07:58.541Z,12.88
2023-03-20T15:10:29.549Z,14.75
2023-03-20T15:12:59.951Z,17.05
2023-03-20T15:15:31.527Z,19.77
2023-03-20T15:18:10.203Z,14.75
2023-03-20T15:20:39.448Z,12.75
2023-03-20T15:23:11.297Z,12.65
2023-03-20T15:25:43.916Z,12.93
2023-03-20T15:28:19.416Z,16.98
2023-03-20T15:30:53.636Z,15.38
2023-03-20T15:33:26.800Z,15.45
2023-03-20T15:35:55.626Z,16.73
2023-03-20T15:38:24.264Z,12.15
2023-03-20T15:40:53.099Z,13.98
2023-03-20T15:43:25.211Z,11.05
2023-03-20T15:46:16.872Z,18.42
2023-03-20T15:48:49.162Z,11.13
2023-03-20T15:51:18.385Z,13.57
2023-03-20T15:53:48.132Z,16.33
2023-03-20T15:56:19.681Z,11.68
2023-03-20T15:58:53.500Z,11.93
2023-03-20T16:01:27.779Z,14.57
2023-03-20T16:03:59.893Z,14.80
2023-03-20T16:06:29.460Z,14.82
2023-03-20T16:08:59.366Z,12.07
2023-03-20T16:11:36.776Z,10.23
2023-03-20T16:14:09.903Z,17.38
2023-03-20T16:16:41.005Z,13.60
2023-03-20T16:19:10.382Z,12.13
2023-03-20T16:21:43.512Z,13.18
2023-03-20T16:24:19.882Z,13.95
2023-03-20T16:26:51.475Z,12.32
2023-03-20T16:29:22.668Z,10.70
2023-03-20T16:31:55.059Z,10.38
2023-03-20T16:34:24.826Z,9.38
2023-03-20T16:36:57.934Z,12.18
2023-03-20T16:39:30.858Z,7.88
2023-03-20T16:42:12.782Z,13.77
2023-03-20T16:44:45.109Z,10.13
2023-03-20T16:47:24.836Z,9.98
2023-03-20T16:50:11.628Z,9.02
2023-03-20T16:52:41.764Z,9.05
2023-03-20T16:55:16.037Z,9.02
2023-03-20T16:57:47.184Z,7.00
2023-03-20T17:00:28.929Z,7.80
2023-03-20T17:03:03.265Z,6.63
2023-03-20T17:05:38.903Z,6.80
2023-03-20T17:08:12.400Z,6.72
2023-03-20T17:10:43.526Z,6.10
2023-03-20T17:13:12.023Z,6.40
2023-03-20T17:15:42.518Z,5.13
2023-03-20T17:18:13.403Z,5.93
2023-03-20T17:20:42.180Z,5.00
2023-03-20T17:23:14.575Z,4.07
2023-03-20T17:25:43.890Z,7.65
2023-03-20T17:28:19.958Z,5.60
2023-03-20T17:30:50.539Z,9.30
2023-03-20T17:33:20.933Z,6.07
2023-03-20T17:35:49.787Z,5.63
2023-03-20T17:38:19.680Z,6.20
2023-03-20T17:40:49.476Z,7.97
2023-03-20T17:43:19.273Z,9.23
2023-03-20T17:45:48.589Z,8.02
2023-03-20T17:48:22.008Z,9.00
2023-03-20T17:50:55.666Z,7.22
2023-03-20T17:53:25.716Z,7.60
2023-03-20T17:55:54.649Z,7.35
2023-03-20T17:58:24.371Z,6.75
2023-03-20T18:00:53.952Z,8.52
2023-03-20T18:03:25.073Z,9.43
2023-03-20T18:05:53.890Z,5.28
2023-03-20T18:08:25.141Z,6.72
2023-03-20T18:10:57.305Z,7.57
2023-03-20T18:13:27.077Z,4.97
2023-03-20T18:15:57.020Z,6.65
2023-03-20T18:18:27.155Z,4.78
2023-03-20T18:20:57.560Z,7.50
2023-03-20T18:23:26.158Z,7.85
2023-03-20T18:25:59.310Z,6.10
2023-03-20T18:28:28.060Z,6.28
2023-03-20T18:30:56.647Z,4.82
2023-03-20T18:33:27.772Z,4.72
2023-03-20T18:35:57.829Z,5.60
2023-03-20T18:38:26.307Z,5.20
2023-03-20T18:40:54.761Z,6.05
2023-03-20T18:43:25.729Z,5.18
2023-03-20T18:45:56.799Z,5.20
2023-03-20T18:48:26.048Z,7.35
2023-03-20T18:51:01.131Z,5.22
2023-03-20T18:53:31.650Z,5.90
2023-03-20T18:56:00.740Z,7.00
2023-03-20T18:58:40.433Z,7.70
2023-03-20T19:01:11.317Z,7.72
2023-03-20T19:03:42.625Z,7.40
2023-03-20T19:06:16.115Z,7.63
2023-03-20T19:08:47.081Z,6.97
2023-03-20T19:11:19.614Z,7.75
2023-03-20T19:13:53.794Z,7.95
2023-03-20T19:16:24.476Z,6.63
2023-03-20T19:18:53.321Z,7.00
2023-03-20T19:21:28.288Z,7.95
2023-03-20T19:23:58.896Z,9.60
2023-03-20T19:26:28.237Z,7.70
2023-03-20T19:29:01.013Z,7.80
2023-03-20T19:31:30.165Z,7.85
2023-03-20T19:33:58.623Z,5.90
2023-03-20T19:36:32.704Z,7.13
2023-03-20T19:39:04.008Z,7.00
2023-03-20T19:41:34.884Z,8.60
2023-03-20T19:44:06.670Z,8.38
2023-03-20T19:46:40.369Z,6.82
2023-03-20T19:49:28.984Z,7.60
2023-03-20T19:51:59.378Z,8.15
2023-03-20T19:54:29.756Z,6.68
2023-03-20T19:56:58.418Z,7.55
2023-03-20T19:59:28.863Z,7.60
2023-03-20T20:01:58.771Z,5.82
2023-03-20T20:04:27.375Z,10.30
2023-03-20T20:07:26.279Z,6.68
2023-03-20T20:09:47.718Z,8.63
2023-03-20T20:12:17.241Z,7.75
2023-03-20T20:14:47.802Z,5.63
2023-03-20T20:17:16.316Z,9.68
2023-03-20T20:19:45.113Z,6.15
2023-03-20T20:22:24.829Z,6.15
2023-03-20T20:24:56.025Z,6.60
2023-03-20T20:27:24.759Z,7.97
2023-03-20T20:29:54.100Z,8.52
2023-03-20T20:32:24.057Z,6.32
2023-03-20T20:40:39.089Z,7.22
2023-03-20T20:43:10.350Z,5.90
2023-03-20T20:45:40.515Z,7.28
2023-03-20T20:48:10.451Z,7.00
2023-03-20T20:50:40.852Z,8.95
2023-03-20T20:53:10.209Z,9.18
2023-03-20T20:55:42.588Z,6.95
2023-03-20T20:58:13.429Z,7.32
2023-03-20T21:00:51.187Z,6.78
2023-03-20T21:03:21.710Z,8.73
2023-03-20T21:05:51.105Z,7.82
2023-03-20T21:08:19.458Z,7.60
2023-03-20T21:10:51.770Z,10.60
2023-03-20T21:13:25.090Z,7.85
2023-03-20T21:16:02.811Z,10.48
2023-03-20T21:18:31.612Z,7.93
2023-03-20T21:21:05.719Z,6.47
2023-03-20T21:23:34.384Z,7.43
2023-03-20T21:26:04.598Z,7.10
2023-03-20T21:28:33.234Z,5.97
2023-03-20T21:31:23.288Z,6.20
2023-03-20T21:33:58.387Z,7.35
2023-03-20T21:36:27.905Z,7.32
2023-03-20T21:39:07.840Z,7.28
2023-03-20T21:41:41.466Z,8.68
2023-03-20T21:44:16.608Z,7.40
2023-03-20T21:50:38.326Z,6.85
2023-03-20T21:53:12.519Z,7.05
2023-03-20T21:56:16.986Z,8.98
2023-03-20T21:58:44.481Z,6.78
2023-03-20T22:01:49.032Z,5.93
2023-03-20T22:04:41.575Z,8.68
2023-03-20T22:07:23.936Z,6.60
2023-03-20T22:24:21.175Z,6.00
2023-03-20T22:30:04.751Z,7.28
2023-03-20T22:32:47.471Z,6.47
2023-03-20T22:35:54.457Z,5.85
2023-03-20T22:38:34.640Z,7.68
2023-03-20T22:44:30.581Z,6.18
2023-03-20T22:46:43.878Z,7.60
2023-03-20T22:49:06.095Z,12.73
2023-03-20T22:51:40.949Z,6.28
2023-03-20T22:54:15.411Z,7.63
2023-03-20T22:56:44.094Z,8.82
2023-03-20T22:59:12.643Z,7.78
2023-03-20T23:01:44.097Z,9.45
2023-03-20T23:04:14.082Z,10.30
2023-03-20T23:06:42.947Z,9.70
2023-03-20T23:09:15.204Z,7.60
2023-03-20T23:11:44.244Z,8.88
2023-03-20T23:14:21.326Z,9.02
2023-03-20T23:16:55.222Z,8.27
2023-03-20T23:19:26.508Z,7.75
2023-03-20T23:21:55.148Z,7.70
2023-03-20T23:24:25.804Z,9.05
2023-03-20T23:26:55.165Z,9.15
2023-03-20T23:29:23.940Z,8.93
2023-03-20T23:31:52.536Z,9.02
2023-03-20T23:34:21.362Z,9.73
2023-03-20T23:36:51.587Z,9.02
2023-03-20T23:39:20.221Z,11.05
2023-03-20T23:44:53.547Z,10.40
2023-03-20T23:47:25.700Z,10.23
2023-03-20T23:49:56.274Z,9.90
2023-03-20T23:52:28.226Z,14.43
2023-03-20T23:54:56.924Z,11.02
2023-03-20T23:57:25.473Z,11.73
2023-03-20T23:59:55.896Z,12.52
